Time;durP1;ratioP1;P1;durP2;ratioP2;P2;SDS_P1;SDS_P2;PMS_P1;PMS_P2;Temp;Humidity;BMP_temperature;BMP_pressure;BME280_temperature;BME280_humidity;BME280_pressure;Samples;Min_cycle;Max_cycle;Signal;HPM_P1;HPM_P2
2021/11/08 00:00:27;;;;;;;3.80;1.00;;;6.90;99.90;6.80;100446.00;;;;4936507;28;87575;-64
2021/11/08 00:02:54;;;;;;;2.53;1.70;;;6.90;99.90;6.80;100449.00;;;;4935699;28;87623;-64
2021/11/08 00:05:20;;;;;;;6.27;1.30;;;6.90;99.90;6.80;100447.00;;;;4935920;28;88893;-64
2021/11/08 00:07:49;;;;;;;1.23;0.93;;;6.90;99.90;6.80;100455.00;;;;4935412;28;88965;-64
2021/11/08 00:10:16;;;;;;;1.23;1.13;;;7.00;99.90;6.80;100460.00;;;;4932371;28;88752;-64
2021/11/08 00:12:42;;;;;;;4.20;1.17;;;7.00;99.90;6.80;100470.00;;;;4926788;28;88367;-65
2021/11/08 00:15:10;;;;;;;7.47;1.60;;;6.90;99.90;6.80;100457.00;;;;4925699;28;87868;-64
2021/11/08 00:17:51;;;;;;;1.27;0.90;;;6.90;99.90;6.80;100460.00;;;;4935816;28;88190;-64
2021/11/08 00:20:25;;;;;;;1.20;0.90;;;7.40;99.90;6.90;100459.00;;;;4936235;28;87667;-65
2021/11/08 00:22:51;;;;;;;3.13;1.37;;;6.90;99.90;6.80;100458.00;;;;4936667;28;87075;-65
2021/11/08 00:25:17;;;;;;;3.67;1.23;;;6.90;99.90;6.80;100462.00;;;;4936138;28;87773;-64
2021/11/08 00:27:43;;;;;;;2.20;1.30;;;6.90;99.90;6.80;100462.00;;;;4935756;28;88065;-64
2021/11/08 00:30:11;;;;;;;1.73;1.03;;;6.90;99.90;6.80;100472.00;;;;4935696;28;88674;-64
2021/11/08 00:32:37;;;;;;;5.23;0.97;;;6.90;99.90;6.80;100466.00;;;;4936203;28;87653;-63
2021/11/08 00:35:03;;;;;;;3.10;1.13;;;6.90;99.90;6.80;100466.00;;;;4935745;28;87793;-63
2021/11/08 00:37:29;;;;;;;2.57;1.30;;;6.90;99.90;6.70;100472.00;;;;4935333;28;88445;-64
2021/11/08 00:39:55;;;;;;;3.20;1.37;;;7.10;99.90;6.70;100474.00;;;;4935038;28;117270;-64
2021/11/08 00:42:20;;;;;;;2.43;0.83;;;6.80;99.90;6.70;100464.00;;;;4938185;28;111048;-65
2021/11/08 00:44:46;;;;;;;3.83;1.37;;;6.80;99.90;6.60;100476.00;;;;4938887;28;88065;-65
2021/11/08 00:47:13;;;;;;;1.97;1.10;;;6.70;99.90;6.60;100472.00;;;;4939433;28;87382;-63
2021/11/08 00:49:40;;;;;;;4.97;1.47;;;6.80;99.90;6.60;100474.00;;;;4938283;28;87888;-64
2021/11/08 00:52:08;;;;;;;1.20;1.10;;;6.70;99.90;6.60;100494.00;;;;4938493;28;87909;-64
2021/11/08 00:54:37;;;;;;;4.20;1.60;;;6.70;99.90;6.60;100489.00;;;;4939038;28;88750;-64
2021/11/08 00:57:03;;;;;;;4.73;1.70;;;6.70;99.90;6.60;100486.00;;;;4938486;28;89183;-63
2021/11/08 00:59:29;;;;;;;1.33;1.13;;;6.80;99.90;6.60;100489.00;;;;4938789;28;88719;-63
2021/11/08 01:01:57;;;;;;;5.73;1.90;;;6.70;99.90;6.60;100496.00;;;;4938947;28;88108;-65
2021/11/08 01:04:25;;;;;;;5.37;0.93;;;6.70;99.90;6.50;100507.00;;;;4938767;28;87861;-64
2021/11/08 01:06:58;;;;;;;4.80;1.30;;;6.70;99.90;6.50;100509.00;;;;4938289;28;88446;-64
2021/11/08 01:09:26;;;;;;;2.43;1.50;;;6.60;99.90;6.50;100499.00;;;;4938312;28;89111;-65
2021/11/08 01:11:51;;;;;;;5.53;1.47;;;6.60;99.90;6.50;100499.00;;;;4939222;28;86986;-64
2021/11/08 01:14:17;;;;;;;2.03;1.13;;;6.60;99.90;6.40;100493.00;;;;4937610;28;108715;-63
2021/11/08 01:16:45;;;;;;;2.80;1.00;;;6.50;99.90;6.40;100497.00;;;;4938437;28;88827;-65
2021/11/08 01:19:12;;;;;;;1.90;1.43;;;6.50;99.90;6.30;100502.00;;;;4937852;28;88952;-63
2021/11/08 01:21:38;;;;;;;5.83;1.90;;;6.50;99.90;6.30;100507.00;;;;4938712;28;88243;-64
2021/11/08 01:24:05;;;;;;;2.00;1.20;;;6.50;99.90;6.40;100500.00;;;;4938496;28;96412;-64
2021/11/08 01:26:32;;;;;;;5.03;1.20;;;6.50;99.90;6.40;100499.00;;;;4938265;28;88753;-64
2021/11/08 01:28:58;;;;;;;1.70;1.27;;;6.50;99.90;6.40;100509.00;;;;4938356;28;88094;-63
2021/11/08 01:31:24;;;;;;;3.73;0.97;;;6.60;99.90;6.40;100513.00;;;;4938679;28;87717;-64
2021/11/08 01:33:52;;;;;;;3.40;1.37;;;6.50;99.90;6.50;100520.00;;;;4937926;28;87915;-64
2021/11/08 01:36:38;;;;;;;7.80;1.33;;;6.50;99.90;6.50;100517.00;;;;4938627;28;87615;-64
2021/11/08 01:39:13;;;;;;;3.33;1.20;;;6.60;99.90;6.50;100523.00;;;;4938489;28;87766;-64
2021/11/08 01:41:39;;;;;;;1.97;1.30;;;6.60;99.90;6.50;100512.00;;;;4937902;28;88070;-65
2021/11/08 01:44:05;;;;;;;4.23;1.23;;;6.60;99.90;6.50;100507.00;;;;4937639;28;91680;-64
2021/11/08 01:46:31;;;;;;;1.27;0.80;;;6.60;99.90;6.50;100508.00;;;;4937600;28;103646;-65
2021/11/08 01:48:57;;;;;;;6.03;1.53;;;6.60;99.90;6.60;100514.00;;;;4937166;28;116699;-65
2021/11/08 01:51:22;;;;;;;1.37;1.17;;;6.70;99.90;6.70;100505.00;;;;4936202;28;110459;-65
2021/11/08 01:53:48;;;;;;;3.53;1.10;;;6.70;99.90;6.70;100509.00;;;;4936195;28;109366;-64
2021/11/08 01:56:16;;;;;;;1.33;0.80;;;6.80;99.90;6.70;100513.00;;;;4938125;28;88058;-64
2021/11/08 01:58:42;;;;;;;2.40;1.33;;;6.80;99.90;6.80;100510.00;;;;4937188;28;87793;-66
2021/11/08 02:01:08;;;;;;;1.20;0.77;;;6.80;99.90;6.80;100502.00;;;;4938309;28;109588;-64
2021/11/08 02:03:34;;;;;;;8.83;1.53;;;6.90;99.90;6.90;100511.00;;;;4937896;28;87694;-62
2021/11/08 02:06:00;;;;;;;4.03;0.90;;;7.00;99.90;6.90;100513.00;;;;4936709;28;117438;-64
2021/11/08 02:08:27;;;;;;;1.60;1.00;;;5.60;99.90;7.00;100514.00;;;;4937002;28;88752;-63
2021/11/08 02:10:56;;;;;;;1.10;1.00;;;7.00;99.90;7.00;100505.00;;;;4937392;28;87760;-64
2021/11/08 02:13:22;;;;;;;1.53;1.20;;;7.00;99.90;7.00;100507.00;;;;4937956;28;87758;-64
2021/11/08 02:15:50;;;;;;;3.53;1.53;;;7.00;99.90;7.10;100512.00;;;;4951686;28;88718;-65
2021/11/08 02:18:15;;;;;;;5.17;1.10;;;7.20;99.90;7.10;100518.00;;;;4937510;28;93198;-65
2021/11/08 02:20:47;;;;;;;4.10;1.60;;;7.20;99.90;7.20;100523.00;;;;4936964;28;110358;-65
2021/11/08 02:23:13;;;;;;;3.37;1.30;;;7.30;99.90;7.20;100524.00;;;;4937327;28;87812;-64
2021/11/08 02:25:39;;;;;;;2.83;0.90;;;7.30;99.90;7.30;100531.00;;;;4937870;28;87951;-65
2021/11/08 02:28:12;;;;;;;3.10;1.13;;;7.40;99.90;7.30;100532.00;;;;4937016;28;87910;-65
2021/11/08 02:30:38;;;;;;;3.60;1.33;;;7.40;99.90;7.40;100535.00;;;;4937541;28;87913;-65
2021/11/08 02:33:08;;;;;;;1.37;1.00;;;7.40;99.90;7.40;100531.00;;;;4936356;28;88873;-64
2021/11/08 02:35:36;;;;;;;3.37;1.17;;;7.50;99.90;7.40;100528.00;;;;4937174;28;87698;-64
2021/11/08 02:38:04;;;;;;;11.93;1.40;;;7.50;99.90;7.50;100528.00;;;;4936464;28;108392;-64
2021/11/08 02:40:30;;;;;;;1.03;0.83;;;7.50;99.90;7.50;100517.00;;;;4937053;28;88016;-64
2021/11/08 02:43:02;;;;;;;5.37;1.43;;;7.60;99.90;7.60;100518.00;;;;4937451;28;87846;-64
2021/11/08 02:45:31;;;;;;;10.50;1.53;;;7.60;99.90;7.60;100522.00;;;;4937003;28;89121;-65
2021/11/08 02:47:57;;;;;;;10.03;1.70;;;7.60;99.90;7.60;100527.00;;;;4936925;28;88526;-63
2021/11/08 02:50:28;;;;;;;3.30;1.33;;;7.60;99.90;7.70;100534.00;;;;4938219;28;87077;-63
2021/11/08 02:52:55;;;;;;;2.20;1.30;;;7.70;99.90;7.70;100552.00;;;;4936863;28;87663;-64
2021/11/08 02:55:25;;;;;;;2.30;1.37;;;7.70;99.90;7.70;100541.00;;;;4937025;28;88985;-64
2021/11/08 02:57:52;;;;;;;2.17;1.10;;;7.70;99.90;7.80;100544.00;;;;4936165;28;88803;-64
2021/11/08 03:00:20;;;;;;;1.87;1.03;;;7.80;99.90;7.80;100558.00;;;;4937001;28;87815;-64
2021/11/08 03:02:47;;;;;;;9.03;1.37;;;7.80;99.90;7.80;100549.00;;;;4937134;28;87987;-64
2021/11/08 03:05:15;;;;;;;2.83;1.47;;;7.90;99.90;7.80;100549.00;;;;4935976;28;89136;-65
2021/11/08 03:07:42;;;;;;;3.03;1.17;;;7.80;99.90;7.80;100549.00;;;;4936503;28;87904;-64
2021/11/08 03:10:18;;;;;;;3.93;1.60;;;7.90;99.90;7.90;100543.00;;;;4937509;28;87684;-65
2021/11/08 03:12:45;;;;;;;4.03;1.50;;;7.90;99.90;7.90;100555.00;;;;4936759;28;87722;-65
2021/11/08 03:15:27;;;;;;;9.30;1.50;;;8.00;99.90;7.90;100549.00;;;;4936891;28;87855;-64
2021/11/08 03:18:02;;;;;;;5.90;1.53;;;8.00;99.90;7.90;100545.00;;;;4936353;28;87511;-65
2021/11/08 03:20:28;;;;;;;7.77;1.23;;;8.00;99.90;7.90;100559.00;;;;4934946;28;87892;-64
2021/11/08 03:22:58;;;;;;;2.83;1.20;;;8.00;99.90;7.90;100568.00;;;;4936467;28;89286;-64
2021/11/08 03:28:04;;;;;;;3.53;1.20;;;8.00;99.90;7.90;100546.00;;;;4935281;28;89305;-63
2021/11/08 03:30:43;;;;;;;3.33;1.10;;;8.00;99.90;8.00;100557.00;;;;4936395;28;87657;-64
2021/11/08 03:33:12;;;;;;;3.70;1.43;;;8.10;99.90;8.00;100554.00;;;;4936095;28;87857;-64
2021/11/08 03:35:39;;;;;;;4.67;2.00;;;8.00;99.90;8.00;100561.00;;;;4936962;28;88781;-64
2021/11/08 03:38:07;;;;;;;1.27;1.17;;;8.00;99.90;8.00;100561.00;;;;4936511;28;87789;-63
2021/11/08 03:40:39;;;;;;;3.70;1.30;;;8.10;99.90;8.10;100566.00;;;;4936336;28;87252;-64
2021/11/08 03:43:10;;;;;;;7.37;1.33;;;8.10;99.90;8.10;100569.00;;;;4936646;28;87698;-64
2021/11/08 03:45:36;;;;;;;4.00;1.53;;;8.10;99.90;8.10;100567.00;;;;4936780;28;87775;-63
2021/11/08 03:48:08;;;;;;;1.80;1.20;;;8.10;99.90;8.10;100582.00;;;;4935677;28;88812;-64
2021/11/08 03:50:34;;;;;;;6.07;1.73;;;8.20;99.90;8.10;100590.00;;;;4936763;28;87724;-64
2021/11/08 03:53:00;;;;;;;3.37;1.67;;;8.20;99.90;8.10;100586.00;;;;4936064;28;87945;-65
2021/11/08 03:55:26;;;;;;;1.47;1.10;;;8.20;99.90;8.20;100590.00;;;;4936771;28;87823;-65
2021/11/08 03:57:53;;;;;;;2.40;1.27;;;8.20;99.90;8.20;100586.00;;;;4936134;28;87962;-64
2021/11/08 04:00:22;;;;;;;1.40;0.77;;;8.20;99.90;8.20;100600.00;;;;4936309;28;87793;-63
2021/11/08 04:02:49;;;;;;;2.70;1.27;;;8.30;99.90;8.20;100598.00;;;;4936251;28;87884;-65
2021/11/08 04:05:16;;;;;;;2.67;1.47;;;8.30;99.90;8.30;100602.00;;;;4936840;28;87224;-64
2021/11/08 04:07:44;;;;;;;1.97;1.17;;;8.50;99.90;8.20;100600.00;;;;4935076;28;107828;-64
2021/11/08 04:10:11;;;;;;;3.03;1.33;;;8.30;99.90;8.20;100601.00;;;;4937251;28;88023;-65
2021/11/08 04:12:39;;;;;;;3.50;1.50;;;8.30;99.90;8.20;100605.00;;;;4935534;28;88733;-64
2021/11/08 04:15:11;;;;;;;2.60;1.60;;;8.20;99.90;8.10;100602.00;;;;4935927;28;88737;-64
2021/11/08 04:17:43;;;;;;;3.67;1.77;;;8.20;99.90;8.10;100615.00;;;;4938928;28;87854;-64
2021/11/08 04:20:12;;;;;;;3.80;1.33;;;8.60;99.90;8.10;100614.00;;;;4939296;28;87853;-64
2021/11/08 04:22:38;;;;;;;1.53;1.03;;;8.10;99.90;8.10;100616.00;;;;4938553;28;87838;-64
2021/11/08 04:25:06;;;;;;;1.60;1.23;;;8.10;99.90;8.10;100613.00;;;;4939569;28;88865;-64
2021/11/08 04:27:36;;;;;;;2.47;1.03;;;8.10;99.90;8.10;100625.00;;;;4938482;28;95769;-64
2021/11/08 04:30:06;;;;;;;8.43;1.87;;;8.20;99.90;8.10;100614.00;;;;4938862;28;87230;-65
2021/11/08 04:32:38;;;;;;;7.10;1.40;;;8.20;99.90;8.10;100620.00;;;;4939213;28;87944;-65
2021/11/08 04:35:11;;;;;;;3.93;1.30;;;8.20;99.90;8.20;100623.00;;;;4938834;28;88435;-64
2021/11/08 04:37:55;;;;;;;4.13;1.40;;;8.20;99.90;8.20;100632.00;;;;4937995;28;89166;-64
2021/11/08 04:40:31;;;;;;;6.20;2.17;;;8.20;99.90;8.20;100624.00;;;;4939247;28;87703;-65
2021/11/08 04:43:11;;;;;;;3.23;0.93;;;8.20;99.90;8.20;100627.00;;;;4939104;28;87852;-63
2021/11/08 04:51:19;;;;;;;3.20;1.20;;;8.30;99.90;8.20;100639.00;;;;4936009;28;87950;-65
2021/11/08 04:54:29;;;;;;;6.67;1.80;;;8.30;99.90;8.10;100642.00;;;;4938392;28;87896;-65
2021/11/08 05:31:36;;;;;;;2.20;1.33;;;7.70;99.90;7.40;100678.00;;;;4934754;28;88649;-67
2021/11/08 05:34:02;;;;;;;5.73;1.93;;;7.60;99.90;7.40;100674.00;;;;4938018;28;87507;-66
2021/11/08 05:36:28;;;;;;;4.03;1.10;;;7.50;99.90;7.30;100686.00;;;;4936422;28;88052;-65
2021/11/08 05:38:55;;;;;;;6.97;1.90;;;7.50;99.90;7.30;100682.00;;;;4937012;28;88924;-65
2021/11/08 05:41:21;;;;;;;14.87;2.27;;;7.40;99.90;7.20;100691.00;;;;4936655;28;117390;-65
2021/11/08 05:43:46;;;;;;;3.97;1.60;;;7.30;99.90;7.20;100696.00;;;;4937208;28;90064;-65
2021/11/08 05:46:12;;;;;;;1.37;1.13;;;7.30;99.90;7.20;100691.00;;;;4936022;28;87572;-65
2021/11/08 05:48:38;;;;;;;5.30;1.70;;;7.30;99.90;7.10;100707.00;;;;4949649;28;87044;-64
2021/11/08 05:51:05;;;;;;;2.83;1.63;;;7.20;99.90;7.10;100701.00;;;;4933271;28;87887;-65
2021/11/08 05:53:32;;;;;;;3.80;1.57;;;7.20;99.90;7.10;100699.00;;;;4932594;28;87900;-65
2021/11/08 05:56:10;;;;;;;1.73;1.60;;;7.20;99.90;7.10;100697.00;;;;4933623;28;88716;-65
2021/11/08 05:59:05;;;;;;;2.60;1.23;;;7.20;99.90;7.10;100705.00;;;;4933687;28;88169;-64
2021/11/08 06:50:43;;;;;;;6.03;1.60;;;7.10;99.90;7.00;100781.00;;;;4935299;28;88908;-65
2021/11/08 06:53:17;;;;;;;6.73;1.83;;;7.10;99.90;7.00;100786.00;;;;4935675;28;87627;-65
2021/11/08 06:55:42;;;;;;;6.30;1.60;;;7.10;99.90;7.00;100791.00;;;;4935299;28;87850;-65
2021/11/08 06:58:16;;;;;;;13.20;2.33;;;7.00;99.90;7.00;100799.00;;;;4936393;28;88371;-65
2021/11/08 07:00:42;;;;;;;2.30;1.73;;;7.10;99.90;7.00;100795.00;;;;4935943;28;88148;-64
2021/11/08 07:03:08;;;;;;;3.20;1.70;;;7.10;99.90;7.00;100797.00;;;;4935521;28;88459;-66
2021/11/08 07:05:34;;;;;;;2.80;1.63;;;7.00;99.90;7.00;100801.00;;;;4935593;28;109630;-65
2021/11/08 07:07:59;;;;;;;5.10;2.40;;;7.00;99.90;7.00;100809.00;;;;4935702;28;98870;-66
2021/11/08 07:10:25;;;;;;;8.70;2.07;;;7.10;99.90;7.00;100809.00;;;;4914899;28;108734;-66
2021/11/08 07:12:52;;;;;;;4.33;1.83;;;7.30;99.90;7.00;100823.00;;;;4926216;28;117001;-65
2021/11/08 07:15:19;;;;;;;2.93;1.97;;;7.10;99.90;7.00;100831.00;;;;4934396;28;88706;-64
2021/11/08 07:17:47;;;;;;;4.83;2.07;;;7.20;99.90;7.10;100816.00;;;;4935596;28;87832;-64
2021/11/08 07:20:13;;;;;;;3.50;1.87;;;7.20;99.90;7.10;100830.00;;;;4935950;28;87655;-65
2021/11/08 07:22:40;;;;;;;4.27;2.67;;;7.20;99.90;7.10;100827.00;;;;4935861;28;88421;-64
2021/11/08 07:25:07;;;;;;;4.40;2.40;;;7.20;99.90;7.20;100844.00;;;;4935058;28;116627;-64
2021/11/08 07:27:33;;;;;;;1.57;1.47;;;7.30;99.90;7.20;100836.00;;;;4935924;28;93621;-65
2021/11/08 07:29:59;;;;;;;7.17;2.90;;;7.30;99.90;7.20;100836.00;;;;4935818;28;87726;-66
2021/11/08 07:32:25;;;;;;;3.27;1.93;;;7.30;99.90;7.30;100844.00;;;;4936025;28;88226;-65
2021/11/08 07:34:52;;;;;;;2.97;2.23;;;7.30;99.90;7.30;100852.00;;;;4936012;28;87870;-65
2021/11/08 07:37:18;;;;;;;2.50;1.70;;;7.40;99.90;7.30;100851.00;;;;4936021;28;87724;-65
2021/11/08 07:39:44;;;;;;;4.57;2.13;;;7.40;99.90;7.30;100848.00;;;;4934641;28;107825;-63
2021/11/08 07:42:10;;;;;;;10.03;3.07;;;7.40;99.90;7.40;100843.00;;;;4935086;28;99812;-63
2021/11/08 07:44:36;;;;;;;2.77;1.73;;;7.80;99.90;7.40;100846.00;;;;4934592;28;113782;-64
2021/11/08 07:47:02;;;;;;;5.17;1.83;;;7.00;99.90;7.50;100856.00;;;;4935664;28;87700;-63
2021/11/08 07:49:28;;;;;;;4.30;2.07;;;7.50;99.90;7.50;100852.00;;;;4935355;28;96838;-64
2021/11/08 07:51:54;;;;;;;9.43;1.80;;;7.60;99.90;7.60;100860.00;;;;4933646;28;117188;-63
2021/11/08 07:54:19;;;;;;;3.53;2.40;;;7.80;99.90;7.60;100863.00;;;;4935091;28;105039;-64
2021/11/08 07:56:47;;;;;;;2.27;1.47;;;7.70;99.90;7.70;100861.00;;;;4949788;28;100943;-64
2021/11/08 07:59:15;;;;;;;9.03;1.70;;;7.70;99.90;7.70;100868.00;;;;4935053;28;87583;-64
2021/11/08 08:01:41;;;;;;;5.23;1.90;;;7.80;99.90;7.80;100865.00;;;;4935160;28;88728;-64
2021/11/08 08:04:07;;;;;;;3.30;1.80;;;7.90;99.90;7.80;100873.00;;;;4934772;28;88762;-64
2021/11/08 08:06:32;;;;;;;2.47;1.90;;;7.90;99.90;7.90;100873.00;;;;4934204;28;105120;-65
2021/11/08 08:08:58;;;;;;;6.60;1.93;;;7.90;99.90;8.00;100870.00;;;;4934812;28;108920;-66
2021/11/08 08:11:24;;;;;;;2.70;1.63;;;8.10;99.90;8.10;100876.00;;;;4934728;28;90907;-66
2021/11/08 08:13:50;;;;;;;10.70;2.10;;;8.00;99.90;8.10;100877.00;;;;4934618;28;116967;-65
2021/11/08 08:16:20;;;;;;;5.00;1.50;;;8.20;99.90;8.10;100886.00;;;;4935039;28;87773;-65
2021/11/08 08:18:49;;;;;;;2.13;1.37;;;8.20;99.90;8.20;100884.00;;;;4935092;28;87603;-66
2021/11/08 08:21:17;;;;;;;7.67;1.70;;;8.30;99.90;8.20;100889.00;;;;4934934;28;87899;-66
2021/11/08 08:23:44;;;;;;;1.40;1.10;;;8.30;99.90;8.30;100882.00;;;;4934636;28;88145;-65
2021/11/08 08:26:11;;;;;;;10.70;1.97;;;8.40;99.90;8.30;100894.00;;;;4934721;28;99770;-65
2021/11/08 08:28:38;;;;;;;1.70;1.30;;;8.40;99.90;8.40;100894.00;;;;4934588;28;88754;-66
2021/11/08 08:31:04;;;;;;;3.53;1.73;;;8.80;99.90;8.40;100883.00;;;;4934574;28;88952;-65
2021/11/08 08:33:31;;;;;;;2.00;1.37;;;8.50;99.90;8.50;100891.00;;;;4933738;28;102811;-64
2021/11/08 08:35:58;;;;;;;4.87;1.87;;;8.50;99.90;8.50;100889.00;;;;4935241;28;87747;-65
2021/11/08 08:38:26;;;;;;;3.33;1.50;;;8.60;99.90;8.60;100885.00;;;;4935016;28;88068;-64
2021/11/08 08:40:55;;;;;;;3.10;2.03;;;8.70;99.90;8.60;100895.00;;;;4934090;28;105562;-64
2021/11/08 08:43:21;;;;;;;7.87;2.13;;;8.70;99.90;8.70;100890.00;;;;4934538;28;88417;-63
2021/11/08 08:45:47;;;;;;;7.43;1.77;;;8.80;99.90;8.80;100900.00;;;;4950357;28;86837;-64
2021/11/08 08:48:13;;;;;;;1.57;1.47;;;8.80;99.90;8.80;100896.00;;;;4934389;28;96584;-64
2021/11/08 08:50:42;;;;;;;1.27;1.17;;;8.80;99.90;8.90;100910.00;;;;4934454;28;89258;-64
2021/11/08 08:53:09;;;;;;;6.97;2.23;;;9.00;99.90;8.90;100909.00;;;;4932594;28;104997;-64
2021/11/08 08:55:38;;;;;;;1.50;1.13;;;9.00;99.90;9.00;100912.00;;;;4931803;28;98427;-64
2021/11/08 08:58:06;;;;;;;6.97;2.00;;;9.00;99.90;9.00;100924.00;;;;4934786;28;87751;-63
2021/11/08 09:00:34;;;;;;;5.10;2.03;;;9.00;99.90;9.00;100913.00;;;;4934296;28;88632;-63
2021/11/08 09:03:00;;;;;;;2.50;1.60;;;9.10;99.90;9.00;100913.00;;;;4935538;28;89892;-64
2021/11/08 09:05:26;;;;;;;1.70;1.50;;;9.10;99.90;9.10;100915.00;;;;4937086;28;109405;-64
2021/11/08 09:07:55;;;;;;;4.27;1.63;;;9.20;99.90;9.10;100920.00;;;;4938211;28;87922;-64
2021/11/08 09:10:25;;;;;;;3.13;2.00;;;9.20;99.90;9.20;100927.00;;;;4937752;28;89200;-63
2021/11/08 09:12:53;;;;;;;2.83;1.70;;;9.20;99.90;9.20;100920.00;;;;4936959;28;106898;-63
2021/11/08 09:15:20;;;;;;;6.83;2.13;;;9.30;99.90;9.30;100930.00;;;;4938303;28;88080;-63
2021/11/08 09:17:46;;;;;;;1.50;1.10;;;9.60;99.90;9.30;100925.00;;;;4937729;28;88804;-63
2021/11/08 09:20:14;;;;;;;3.47;1.77;;;9.40;99.90;9.30;100928.00;;;;4937617;28;100252;-63
2021/11/08 09:22:43;;;;;;;4.30;2.07;;;9.40;99.90;9.40;100929.00;;;;4937526;28;88115;-63
2021/11/08 09:25:11;;;;;;;2.27;1.40;;;9.40;99.90;9.40;100949.00;;;;4937975;28;87820;-63
2021/11/08 09:27:38;;;;;;;4.93;1.63;;;9.40;99.90;9.50;100932.00;;;;4937905;28;87824;-65
2021/11/08 09:30:07;;;;;;;5.03;1.37;;;9.50;99.90;9.50;100939.00;;;;4937060;28;100973;-62
2021/11/08 09:32:33;;;;;;;4.17;1.80;;;9.50;99.90;9.60;100948.00;;;;4936301;28;108197;-64
2021/11/08 09:34:59;;;;;;;3.00;1.43;;;9.60;99.90;9.70;100954.00;;;;4938054;28;86943;-64
2021/11/08 09:37:31;;;;;;;3.77;1.40;;;9.60;99.90;9.80;100949.00;;;;4936517;28;108727;-64
2021/11/08 09:39:59;;;;;;;11.63;2.03;;;9.80;99.90;9.80;100958.00;;;;4937286;28;88708;-63
2021/11/08 09:42:28;;;;;;;10.93;1.73;;;9.80;99.90;9.90;100946.00;;;;4936499;28;88823;-63
2021/11/08 09:44:54;;;;;;;4.70;1.60;;;9.90;99.90;9.90;100951.00;;;;4937067;28;88006;-64
2021/11/08 09:47:21;;;;;;;3.63;1.97;;;9.90;99.90;9.90;100960.00;;;;4951572;28;90650;-62
2021/11/08 09:49:53;;;;;;;3.27;1.70;;;10.00;99.90;9.90;100977.00;;;;4936499;28;105447;-63
2021/11/08 09:52:21;;;;;;;2.33;1.30;;;9.90;99.90;9.90;100977.00;;;;4936795;28;88340;-62
2021/11/08 09:54:47;;;;;;;5.07;2.07;;;9.90;99.90;9.90;100974.00;;;;4937184;28;87750;-64
2021/11/08 09:57:13;;;;;;;4.87;1.90;;;10.00;99.90;9.90;100963.00;;;;4937044;28;88003;-62
2021/11/08 09:59:40;;;;;;;5.70;2.27;;;10.00;99.90;9.90;100969.00;;;;4936623;28;88377;-66
2021/11/08 10:02:14;;;;;;;4.80;2.10;;;10.00;99.90;9.90;100986.00;;;;4934586;28;117874;-64
2021/11/08 10:04:42;;;;;;;4.87;2.23;;;10.00;99.90;9.90;100976.00;;;;4937030;28;87853;-64
2021/11/08 10:07:08;;;;;;;3.00;1.80;;;10.00;99.90;9.90;100984.00;;;;4936045;28;88766;-64
2021/11/08 10:09:35;;;;;;;5.70;1.50;;;10.00;99.90;9.90;100984.00;;;;4936062;28;89001;-64
2021/11/08 10:12:09;;;;;;;3.30;1.40;;;10.00;99.90;10.00;100975.00;;;;4936343;28;105678;-63
2021/11/08 10:14:36;;;;;;;5.67;2.30;;;10.00;99.90;10.00;100983.00;;;;4941237;28;87802;-63
2021/11/08 10:17:02;;;;;;;8.80;2.13;;;10.00;99.90;10.00;100974.00;;;;4936975;28;87900;-63
2021/11/08 10:19:33;;;;;;;9.23;2.13;;;10.00;99.90;10.10;100981.00;;;;4936515;28;88506;-64
2021/11/08 10:22:00;;;;;;;5.60;2.03;;;10.10;99.90;10.10;100985.00;;;;4936131;28;88810;-64
2021/11/08 10:24:34;;;;;;;3.13;1.43;;;10.70;99.90;10.20;100985.00;;;;4941641;28;87007;-63
2021/11/08 10:27:06;;;;;;;6.93;2.13;;;10.20;99.90;10.20;100981.00;;;;4939431;28;87788;-64
2021/11/08 10:29:32;;;;;;;7.00;1.43;;;10.20;99.90;10.20;100989.00;;;;4936355;28;88616;-65
2021/11/08 10:32:04;;;;;;;2.80;1.30;;;10.20;99.90;10.20;100994.00;;;;4935546;28;88620;-64
2021/11/08 10:34:31;;;;;;;4.03;1.43;;;10.30;99.90;10.20;100991.00;;;;4936591;28;88246;-64
2021/11/08 10:37:08;;;;;;;2.00;1.50;;;10.30;99.90;10.30;100987.00;;;;4936446;28;95660;-64
2021/11/08 10:39:36;;;;;;;5.37;1.67;;;10.30;99.90;10.30;100982.00;;;;4936311;28;88695;-64
2021/11/08 10:42:04;;;;;;;4.30;1.63;;;10.30;99.90;10.30;100988.00;;;;4936098;28;88018;-65
2021/11/08 10:44:32;;;;;;;5.70;1.97;;;10.30;99.90;10.30;100995.00;;;;4936142;28;87528;-65
2021/11/08 10:47:03;;;;;;;6.13;1.77;;;10.30;99.90;10.30;101001.00;;;;4934581;28;87678;-64
2021/11/08 10:49:39;;;;;;;6.23;1.37;;;10.40;99.90;10.40;100996.00;;;;4916860;28;101850;-65
2021/11/08 10:52:06;;;;;;;3.73;1.67;;;10.40;99.90;10.50;100995.00;;;;4933783;28;87844;-64
2021/11/08 10:54:37;;;;;;;6.17;1.90;;;10.40;99.90;10.50;100999.00;;;;4934967;28;109693;-65
2021/11/08 10:57:10;;;;;;;2.87;1.80;;;10.50;99.90;10.50;100990.00;;;;4935695;28;88773;-64
2021/11/08 10:59:46;;;;;;;4.10;1.87;;;10.50;99.90;10.60;101000.00;;;;4935726;28;88698;-65
2021/11/08 11:02:15;;;;;;;7.40;2.40;;;10.50;99.90;10.60;100999.00;;;;4936090;28;88338;-64
2021/11/08 11:04:57;;;;;;;6.77;2.17;;;10.60;99.90;10.60;101003.00;;;;4936069;28;87651;-63
2021/11/08 11:07:32;;;;;;;6.27;1.87;;;10.60;99.90;10.60;101003.00;;;;4936033;28;87920;-63
2021/11/08 11:10:05;;;;;;;6.70;2.03;;;10.60;99.90;10.60;101007.00;;;;4936071;28;87969;-63
2021/11/08 11:12:31;;;;;;;9.17;2.43;;;10.70;99.90;10.70;101006.00;;;;4935671;28;87794;-64
2021/11/08 11:15:06;;;;;;;3.87;1.83;;;10.70;99.90;10.70;101009.00;;;;4936292;28;87060;-64
2021/11/08 11:17:51;;;;;;;7.87;1.60;;;10.70;99.90;10.70;101009.00;;;;4936130;28;88003;-65
2021/11/08 11:20:24;;;;;;;1.40;0.90;;;10.70;99.90;10.70;101020.00;;;;4935282;28;88033;-64
2021/11/08 11:23:24;;;;;;;6.17;1.70;;;10.70;99.90;10.60;101022.00;;;;4915527;28;97258;-65
2021/11/08 11:25:58;;;;;;;8.00;1.50;;;10.70;99.90;10.60;101011.00;;;;4922046;28;87721;-63
2021/11/08 11:28:35;;;;;;;8.43;1.50;;;10.70;99.90;10.60;101009.00;;;;4935967;28;87988;-63
2021/11/08 11:31:21;;;;;;;5.03;1.60;;;10.60;99.90;10.60;101012.00;;;;4935746;28;87877;-64
2021/11/08 11:33:52;;;;;;;6.43;1.80;;;10.60;99.90;10.60;101009.00;;;;4935056;28;88128;-63
2021/11/08 11:36:19;;;;;;;2.97;1.60;;;10.60;99.90;10.60;101014.00;;;;4936238;28;87757;-64
2021/11/08 11:38:52;;;;;;;2.20;1.23;;;10.60;99.90;10.60;101012.00;;;;4935824;28;87782;-65
2021/11/08 11:41:31;;;;;;;5.37;1.97;;;10.70;99.90;10.60;101006.00;;;;4950745;28;87145;-64
2021/11/08 11:44:15;;;;;;;8.00;1.77;;;10.70;99.90;10.60;101017.00;;;;4935920;28;87541;-63
2021/11/08 11:46:46;;;;;;;2.57;1.70;;;10.70;99.90;10.60;101011.00;;;;4935828;28;94256;-63
2021/11/08 11:49:13;;;;;;;5.73;1.53;;;10.60;99.90;10.60;101010.00;;;;4935531;28;88641;-65
2021/11/08 11:51:45;;;;;;;4.07;1.40;;;10.70;99.90;10.60;101015.00;;;;4934548;28;107235;-64
2021/11/08 11:54:14;;;;;;;7.37;2.53;;;10.60;99.90;10.60;101018.00;;;;4935251;28;88438;-63
2021/11/08 11:56:44;;;;;;;5.10;1.30;;;10.60;99.90;10.50;101006.00;;;;4936115;28;88082;-66
2021/11/08 11:59:13;;;;;;;14.40;1.73;;;10.60;99.90;10.50;101005.00;;;;4935225;28;87976;-65
2021/11/08 12:01:40;;;;;;;2.50;1.53;;;10.80;99.90;10.50;101009.00;;;;4934567;28;106245;-63
2021/11/08 12:04:07;;;;;;;2.80;1.47;;;10.60;99.90;10.50;101007.00;;;;4935466;28;88311;-64
2021/11/08 12:06:38;;;;;;;3.40;1.83;;;10.50;99.90;10.50;101014.00;;;;4935786;28;87046;-64
2021/11/08 12:09:09;;;;;;;2.23;1.37;;;10.50;99.90;10.40;101001.00;;;;4950707;28;87975;-64
2021/11/08 12:11:41;;;;;;;6.77;1.70;;;10.50;99.90;10.40;101016.00;;;;4935366;28;88576;-64
2021/11/08 12:14:21;;;;;;;1.77;1.30;;;10.40;99.90;10.40;101010.00;;;;4935129;28;88741;-64
2021/11/08 12:17:03;;;;;;;7.70;1.50;;;10.50;99.90;10.40;101015.00;;;;4935392;28;87765;-64
2021/11/08 12:19:35;;;;;;;3.80;1.40;;;10.50;99.90;10.50;101011.00;;;;4935861;28;87783;-66
2021/11/08 12:22:25;;;;;;;5.70;1.90;;;10.50;99.90;10.60;101020.00;;;;4935235;28;87798;-66
2021/11/08 12:25:00;;;;;;;2.33;1.43;;;10.60;99.90;10.60;101028.00;;;;4935266;28;87875;-64
2021/11/08 12:27:41;;;;;;;5.07;2.07;;;10.60;99.90;10.70;101029.00;;;;4934645;28;99512;-63
2021/11/08 12:30:20;;;;;;;1.63;1.23;;;10.70;99.90;10.70;101031.00;;;;4935369;28;87659;-65
2021/11/08 12:32:55;;;;;;;2.80;1.77;;;10.70;99.90;10.70;101032.00;;;;4935872;28;87282;-64
2021/11/08 12:35:51;;;;;;;6.97;1.87;;;10.70;99.90;10.70;101018.00;;;;4935384;28;87821;-63
2021/11/08 12:38:33;;;;;;;14.93;2.23;;;10.70;99.90;10.70;101018.00;;;;4936105;28;110087;-66